»·PEaware :: AAL394 KTUL-KDFW

AAL394 :: KTUL-KDFW

FLIGHT INFORMATION

Flight Status: Arrived
Operator:
American Airlines
More flights by this operator :: More flights under this callsign
Pilot: John H. (7647)
Aircraft: BOEING 737-800
(B738)
More flights by this aircraft type
Origin: KTUL Tulsa Intl
United States
Destination: KDFW Dallas-Ft Worth Intl
United States
More flights between these airports :: More routes between these airports
Route: PEJAY AXXEE BRDJE3
File this flight plan on PilotEdge
Remarks: PBN / A1B1C1D1S1S2 DOF / 180923 REG / N806SB EET / KZFW0007 OPR / AAL PER / C RMK / TCAS SIMBRIEF
Altitude:
(Current/Filed)
22,000ft
Speed:
(Current/Filed)
437kts
Departed: 23-Sep-18 10:20 AM
Arrived: 23-Sep-18 11:17 AM
Distance/Time
Traveled:
205nm/0:57
Distance/Time
To Go:
Arrived

Flight Plot

Page will automatically refresh every two minutes.

Flight plan parsing failed; only flown route is shown


Map Options




Map Legend


Flown Route
Filed Route
Departure Airport
Arrival Airport
Navaid (VOR, NDB)
Fix

Horizontal Profiles

Position Reports

Time Latitude Longitude Heading Altitude Ground
Speed
23-Sep-18 10:10 36.193326 -95.889127 131 654ft 0kts
23-Sep-18 10:11 36.193326 -95.889127 131 654ft 0kts
23-Sep-18 10:12 36.193326 -95.889127 131 654ft 0kts
23-Sep-18 10:13 36.193765 -95.889298 196 653ft 2kts
23-Sep-18 10:14 36.194090 -95.888741 274 652ft 2kts
23-Sep-18 10:15 36.193984 -95.888419 310 653ft 0kts
23-Sep-18 10:16 36.194045 -95.888505 310 652ft 1kts
23-Sep-18 10:17 36.194583 -95.889864 275 651ft 7kts
23-Sep-18 10:18 36.194599 -95.893242 269 657ft 8kts
23-Sep-18 10:19 36.194597 -95.896110 269 663ft 8kts
23-Sep-18 10:20 36.194190 -95.898621 188 669ft 9kts
23-Sep-18 10:21 36.190686 -95.899371 265 672ft 15kts
23-Sep-18 10:22 36.207174 -95.899126 1 645ft 156kts
23-Sep-18 10:23 36.254878 -95.902880 1 2480ft 163kts
23-Sep-18 10:24 36.275384 -95.933887 260 4122ft 168kts
23-Sep-18 10:25 36.257711 -95.981972 178 5116ft 205kts
23-Sep-18 10:26 36.219977 -95.937459 122 5094ft 264kts
23-Sep-18 10:27 36.159247 -95.884235 157 7622ft 286kts
23-Sep-18 10:28 36.071362 -95.842765 156 10621ft 302kts
23-Sep-18 10:29 36.005756 -95.811691 160 12694ft 311kts
23-Sep-18 10:30 35.923480 -95.772913 161 14898ft 325kts
23-Sep-18 10:31 35.840245 -95.733790 161 16974ft 335kts
23-Sep-18 10:32 35.754610 -95.693595 162 18871ft 346kts
23-Sep-18 10:33 35.663747 -95.652038 169 20658ft 355kts
23-Sep-18 10:34 35.566524 -95.660710 189 22072ft 363kts
23-Sep-18 10:35 35.468767 -95.678611 189 22080ft 395kts
23-Sep-18 10:36 35.365706 -95.697190 189 22077ft 399kts
23-Sep-18 10:37 35.261540 -95.715863 189 22075ft 399kts
23-Sep-18 10:38 35.152549 -95.735303 189 22074ft 396kts
23-Sep-18 10:39 35.044622 -95.754478 189 22074ft 397kts
23-Sep-18 10:40 34.937147 -95.773543 189 22073ft 396kts
23-Sep-18 10:41 34.834941 -95.791592 189 22077ft 396kts
23-Sep-18 10:42 34.727479 -95.810511 189 22077ft 396kts
23-Sep-18 10:43 34.619502 -95.829472 189 22076ft 396kts
23-Sep-18 10:44 34.510896 -95.848492 189 22076ft 395kts
23-Sep-18 10:45 34.402770 -95.867372 189 22075ft 395kts
23-Sep-18 10:46 34.295760 -95.890905 201 22060ft 393kts
23-Sep-18 10:47 34.194180 -95.936075 201 22047ft 393kts
23-Sep-18 10:48 34.091942 -95.981002 200 22022ft 393kts
23-Sep-18 10:49 33.989916 -96.025507 201 22041ft 392kts
23-Sep-18 10:50 33.890718 -96.068630 201 22020ft 392kts
23-Sep-18 10:51 33.799116 -96.108166 200 22022ft 392kts
23-Sep-18 10:52 33.701492 -96.149711 201 22022ft 391kts
23-Sep-18 10:53 33.600052 -96.192743 201 22016ft 386kts
23-Sep-18 10:54 33.501494 -96.234408 201 22017ft 374kts
23-Sep-18 10:55 33.415269 -96.299207 228 21762ft 377kts
23-Sep-18 10:56 33.349950 -96.389383 228 19530ft 347kts
23-Sep-18 10:57 33.288996 -96.474383 228 17500ft 331kts
23-Sep-18 10:58 33.229087 -96.555353 226 16024ft 321kts
23-Sep-18 10:59 33.171352 -96.631858 227 14830ft 315kts
23-Sep-18 11:00 33.117711 -96.705420 226 13823ft 302kts
23-Sep-18 11:01 33.065388 -96.777038 226 12849ft 289kts
23-Sep-18 11:02 33.013841 -96.846926 226 11810ft 270kts
23-Sep-18 11:03 32.962830 -96.902276 195 10913ft 243kts
23-Sep-18 11:04 32.895926 -96.909556 182 10194ft 245kts
23-Sep-18 11:05 32.828791 -96.914205 181 9490ft 245kts
23-Sep-18 11:06 32.760820 -96.916866 177 8777ft 245kts
23-Sep-18 11:07 32.692566 -96.916494 178 8067ft 252kts
23-Sep-18 11:08 32.622601 -96.916299 179 7286ft 253kts
23-Sep-18 11:09 32.553125 -96.915951 179 6976ft 251kts
23-Sep-18 11:10 32.484294 -96.920882 213 6990ft 248kts
23-Sep-18 11:11 32.486453 -96.985510 335 7022ft 243kts
23-Sep-18 11:12 32.545230 -97.021017 336 6936ft 241kts
23-Sep-18 11:13 32.610922 -97.031904 0 5712ft 237kts
23-Sep-18 11:14 32.675190 -97.031221 1 4455ft 230kts
23-Sep-18 11:15 32.737337 -97.030814 0 3272ft 226kts
23-Sep-18 11:16 32.793315 -97.030571 0 2205ft 211kts
23-Sep-18 11:17 32.846173 -97.030263 0 1193ft 180kts
23-Sep-18 11:18 32.892943 -97.030027 358 569ft 150kts
23-Sep-18 11:19 32.903680 -97.031292 331 577ft 0kts
23-Sep-18 11:20 32.906215 -97.034442 323 590ft 20kts
23-Sep-18 11:21 32.907425 -97.037931 180 591ft 0kts
23-Sep-18 11:22 32.907425 -97.037931 180 591ft 0kts
23-Sep-18 11:23 32.907425 -97.037931 180 591ft 0kts

Navigation Log

Ident Type
Flight plan parsing failed, navigation log unavailable